< < Back
Terminal Aerodrome Forecast


Current Version              Previous Versions:   1  2  3  4  5  6  7  8  9  

Terminal Aerodrome Forecast

665
FTUS44 KBMX 221727
TAFMGM
TAF
KMGM 221727Z 2218/2318 01007KT P6SM SCT250
     FM230000 04004KT P6SM SKC
     FM231200 10008KT P6SM SCT250=



Latest METAR

799
SAUS80 KWBC 231100 RRB
MTRMGM
METAR KMGM 231053Z 04004KT 10SM CLR 16/13 A3026 RMK AO2 SLP246
T01610133


USA.gov is the U.S. government's official web portal to all federal, state and local government web resources and services.